createdAt,value
2018-02-08T00:00:02.562Z,46.27
2018-02-08T00:02:30.125Z,43.77
2018-02-08T00:04:57.655Z,44.37
2018-02-08T00:07:25.211Z,43.37
2018-02-08T00:09:52.741Z,45.20
2018-02-08T00:12:20.301Z,45.40
2018-02-08T00:14:47.855Z,48.53
2018-02-08T00:17:15.423Z,48.77
2018-02-08T00:19:42.953Z,45.50
2018-02-08T00:22:10.505Z,45.27
2018-02-08T00:24:38.037Z,48.10
2018-02-08T00:27:05.601Z,43.97
2018-02-08T00:29:33.139Z,42.97
2018-02-08T00:32:00.701Z,47.63
2018-02-08T00:34:28.260Z,48.90
2018-02-08T00:36:55.824Z,38.13
2018-02-08T00:39:23.404Z,37.37
2018-02-08T00:41:50.972Z,44.37
2018-02-08T00:44:18.495Z,42.63
2018-02-08T00:46:46.047Z,42.30
2018-02-08T00:49:13.564Z,43.27
2018-02-08T00:51:41.152Z,38.67
2018-02-08T00:54:08.673Z,38.10
2018-02-08T00:56:36.231Z,40.90
2018-02-08T00:59:03.768Z,40.00
2018-02-08T01:01:31.315Z,40.73
2018-02-08T01:03:58.832Z,38.27
2018-02-08T01:06:27.200Z,36.23
2018-02-08T01:08:54.691Z,33.67
2018-02-08T01:11:22.259Z,37.47
2018-02-08T01:13:50.560Z,39.17
2018-02-08T01:16:18.081Z,38.50
2018-02-08T01:18:46.403Z,35.93
2018-02-08T01:21:13.931Z,37.40
2018-02-08T01:23:41.719Z,41.50
2018-02-08T01:26:09.254Z,38.60
2018-02-08T01:28:36.850Z,40.07
2018-02-08T01:31:04.404Z,39.83
2018-02-08T01:33:31.957Z,41.30
2018-02-08T01:35:59.491Z,35.47
2018-02-08T01:38:27.044Z,39.20
2018-02-08T01:40:54.571Z,37.30
2018-02-08T01:43:22.140Z,38.40
2018-02-08T01:45:49.666Z,36.33
2018-02-08T01:48:17.213Z,40.57
2018-02-08T01:50:44.746Z,38.53
2018-02-08T01:53:12.312Z,39.10
2018-02-08T01:55:39.835Z,36.70
2018-02-08T01:58:07.387Z,37.43
2018-02-08T02:00:34.920Z,39.97
2018-02-08T02:03:02.464Z,36.37
2018-02-08T02:05:29.987Z,39.93
2018-02-08T02:07:57.546Z,40.30
2018-02-08T02:10:25.094Z,36.83
2018-02-08T02:12:52.639Z,38.47
2018-02-08T02:15:20.151Z,38.10
2018-02-08T02:17:47.717Z,38.80
2018-02-08T02:20:15.246Z,37.93
2018-02-08T02:22:42.801Z,36.87
2018-02-08T02:25:10.320Z,33.13
2018-02-08T02:27:37.881Z,38.17
2018-02-08T02:30:05.413Z,37.17
2018-02-08T02:32:33.731Z,41.47
2018-02-08T02:35:01.249Z,40.80
2018-02-08T02:37:28.804Z,40.53
2018-02-08T02:39:56.328Z,39.50
2018-02-08T02:42:24.646Z,40.47
2018-02-08T02:44:52.160Z,40.00
2018-02-08T02:47:19.707Z,40.23
2018-02-08T02:49:47.228Z,39.57
2018-02-08T02:52:14.772Z,36.73
2018-02-08T02:54:42.291Z,41.20
2018-02-08T02:57:09.844Z,40.90
2018-02-08T02:59:38.155Z,39.90
2018-02-08T03:02:05.696Z,41.33
2018-02-08T03:04:33.223Z,42.97
2018-02-08T03:07:00.769Z,38.00
2018-02-08T03:09:28.362Z,38.47
2018-02-08T03:11:56.018Z,39.60
2018-02-08T03:14:23.539Z,41.90
2018-02-08T03:16:51.104Z,41.17
2018-02-08T03:19:18.632Z,42.73
2018-02-08T03:21:46.194Z,41.10
2018-02-08T03:24:14.480Z,40.37
2018-02-08T03:26:42.035Z,41.50
2018-02-08T03:29:09.564Z,41.80
2018-02-08T03:31:37.117Z,41.57
2018-02-08T03:34:04.640Z,41.20
2018-02-08T03:36:32.222Z,40.03
2018-02-08T03:38:59.740Z,41.57
2018-02-08T03:41:27.307Z,41.40
2018-02-08T03:43:54.828Z,39.50
2018-02-08T03:46:22.378Z,40.50
2018-02-08T03:48:50.668Z,38.73
2018-02-08T03:51:18.240Z,41.97
2018-02-08T03:53:45.773Z,39.60
2018-02-08T03:56:13.345Z,42.10
2018-02-08T03:58:40.863Z,40.53
2018-02-08T04:01:08.425Z,38.07
2018-02-08T04:03:35.967Z,41.63
2018-02-08T04:06:03.488Z,40.83
2018-02-08T04:08:31.043Z,44.47
2018-02-08T04:10:58.562Z,44.47
2018-02-08T04:13:26.891Z,42.97
2018-02-08T04:15:54.447Z,39.53
2018-02-08T04:18:21.966Z,40.90
2018-02-08T04:20:49.534Z,42.70
2018-02-08T04:23:17.072Z,47.17
2018-02-08T04:25:44.624Z,40.30
2018-02-08T04:28:12.151Z,43.70
2018-02-08T04:30:39.708Z,43.00
2018-02-08T04:33:07.223Z,43.40
2018-02-08T04:35:34.774Z,46.80
2018-02-08T04:38:02.295Z,46.10
2018-02-08T04:40:41.676Z,41.57
2018-02-08T04:43:21.011Z,43.57
2018-02-08T04:46:00.456Z,45.87
2018-02-08T04:48:27.989Z,43.13
2018-02-08T04:50:56.304Z,43.47
2018-02-08T04:53:23.824Z,43.67
2018-02-08T04:55:51.386Z,39.17
2018-02-08T04:58:18.913Z,45.07
2018-02-08T05:00:47.235Z,44.73
2018-02-08T05:03:14.774Z,44.90
2018-02-08T05:05:42.332Z,44.40
2018-02-08T05:08:09.859Z,40.20
2018-02-08T05:10:37.426Z,46.07
2018-02-08T05:13:04.983Z,46.90
2018-02-08T05:15:32.545Z,44.77
2018-02-08T05:18:00.075Z,43.60
2018-02-08T05:20:27.635Z,45.50
2018-02-08T05:22:55.181Z,43.80
2018-02-08T05:25:22.764Z,43.60
2018-02-08T05:27:50.300Z,49.30
2018-02-08T05:30:18.624Z,48.70
2018-02-08T05:32:46.166Z,47.03
2018-02-08T05:35:13.724Z,48.30
2018-02-08T05:37:41.285Z,47.90
2018-02-08T05:40:09.706Z,47.80
2018-02-08T05:42:37.236Z,46.17
2018-02-08T05:45:04.792Z,45.53
2018-02-08T05:47:32.330Z,44.00
2018-02-08T05:49:59.898Z,40.70
2018-02-08T05:52:27.435Z,46.10
2018-02-08T05:54:55.899Z,43.00
2018-02-08T05:57:23.415Z,41.23
2018-02-08T05:59:50.973Z,43.43
2018-02-08T06:02:19.280Z,44.13
2018-02-08T06:04:47.590Z,40.47
2018-02-08T06:07:15.167Z,44.40
2018-02-08T06:09:42.763Z,39.73
2018-02-08T06:12:10.366Z,40.90
2018-02-08T06:14:37.897Z,39.00
2018-02-08T06:17:05.506Z,46.07
2018-02-08T06:19:33.076Z,43.30
2018-02-08T06:22:00.609Z,47.87
2018-02-08T06:24:28.171Z,44.20
2018-02-08T06:26:55.735Z,48.20
2018-02-08T06:29:23.405Z,46.37
2018-02-08T06:31:50.942Z,47.83
2018-02-08T06:34:18.515Z,43.60
2018-02-08T06:36:46.050Z,41.13
2018-02-08T06:39:13.648Z,41.20
2018-02-08T06:41:41.167Z,44.07
2018-02-08T06:44:08.723Z,40.47
2018-02-08T06:46:37.019Z,46.47
2018-02-08T06:49:04.598Z,46.40
2018-02-08T06:51:32.119Z,42.80
2018-02-08T06:53:59.727Z,45.93
2018-02-08T06:56:27.243Z,48.30
2018-02-08T06:58:54.820Z,51.37
2018-02-08T07:01:23.214Z,52.90
2018-02-08T07:03:50.771Z,52.20
2018-02-08T07:06:18.301Z,51.37
2018-02-08T07:08:45.859Z,43.13
2018-02-08T07:11:13.375Z,39.60
2018-02-08T07:13:40.931Z,51.87
2018-02-08T07:16:08.476Z,52.47
2018-02-08T07:18:36.038Z,49.60
2018-02-08T07:21:03.636Z,45.60
2018-02-08T07:23:31.163Z,46.23
2018-02-08T07:25:58.719Z,45.83
2018-02-08T07:28:26.276Z,46.50
2018-02-08T07:30:54.590Z,41.07
2018-02-08T07:33:22.151Z,41.03
2018-02-08T07:35:49.707Z,40.93
2018-02-08T07:38:18.005Z,41.07
2018-02-08T07:40:45.831Z,37.17
2018-02-08T07:43:13.377Z,40.63
2018-02-08T07:45:40.927Z,42.10
2018-02-08T07:48:08.580Z,41.87
2018-02-08T07:50:36.912Z,37.90
2018-02-08T07:53:04.435Z,40.47
2018-02-08T07:55:32.007Z,39.60
2018-02-08T07:57:59.526Z,33.77
2018-02-08T08:00:27.073Z,32.10
2018-02-08T08:02:55.069Z,29.00
2018-02-08T08:05:22.625Z,26.97
2018-02-08T08:07:50.993Z,26.60
2018-02-08T08:10:18.553Z,25.37
2018-02-08T08:12:46.099Z,26.93
2018-02-08T08:15:13.651Z,25.43
2018-02-08T08:17:41.940Z,26.17
2018-02-08T08:22:43.431Z,26.17
2018-02-08T08:25:10.989Z,22.67
2018-02-08T08:27:39.271Z,24.07
2018-02-08T08:30:07.603Z,25.00
2018-02-08T08:32:35.115Z,25.50
2018-02-08T08:35:02.668Z,23.37
2018-02-08T08:37:30.186Z,24.80
2018-02-08T08:39:58.495Z,24.50
2018-02-08T08:42:26.028Z,22.70
2018-02-08T08:44:53.590Z,24.50
2018-02-08T08:47:21.135Z,25.90
2018-02-08T08:49:48.692Z,26.87
2018-02-08T08:52:16.215Z,24.37
2018-02-08T08:54:43.818Z,24.80
2018-02-08T08:57:12.130Z,22.13
2018-02-08T08:59:39.681Z,23.20
2018-02-08T09:02:07.233Z,25.80
2018-02-08T09:04:34.795Z,24.67
2018-02-08T09:07:02.315Z,25.33
2018-02-08T09:09:29.907Z,25.23
2018-02-08T09:11:57.451Z,25.30
2018-02-08T09:14:25.029Z,25.00
2018-02-08T09:16:52.576Z,27.67
2018-02-08T09:19:20.906Z,25.67
2018-02-08T09:21:48.426Z,26.00
2018-02-08T09:24:16.013Z,26.40
2018-02-08T09:26:44.325Z,26.00
2018-02-08T09:29:11.881Z,25.30
2018-02-08T09:31:40.233Z,25.90
2018-02-08T09:34:07.779Z,26.73
2018-02-08T09:36:35.307Z,23.70
2018-02-08T09:39:03.651Z,25.70
2018-02-08T09:41:31.192Z,26.87
2018-02-08T09:43:58.740Z,26.67
2018-02-08T09:46:26.254Z,25.53
2018-02-08T09:48:53.818Z,28.07
2018-02-08T09:51:21.341Z,28.07
2018-02-08T09:53:48.899Z,26.13
2018-02-08T09:56:16.416Z,29.40
2018-02-08T09:58:43.919Z,27.00
2018-02-08T10:01:11.475Z,26.73
2018-02-08T10:03:38.991Z,27.97
2018-02-08T10:06:06.552Z,28.50
2018-02-08T10:08:34.122Z,27.73
2018-02-08T10:11:01.675Z,29.20
2018-02-08T10:13:29.259Z,29.30
2018-02-08T10:15:56.780Z,29.70
2018-02-08T10:18:24.359Z,28.90
2018-02-08T10:20:52.644Z,29.23
2018-02-08T10:23:21.057Z,28.77
2018-02-08T10:25:48.582Z,29.60
2018-02-08T10:28:16.135Z,29.73
2018-02-08T10:30:43.677Z,29.23
2018-02-08T10:33:11.199Z,29.10
2018-02-08T10:35:39.556Z,29.00
2018-02-08T10:38:07.099Z,27.20
2018-02-08T10:40:35.387Z,29.13
2018-02-08T10:43:02.943Z,30.17
2018-02-08T10:45:30.462Z,28.43
2018-02-08T10:47:58.005Z,29.10
2018-02-08T10:50:26.330Z,29.57
2018-02-08T10:52:53.911Z,28.17
2018-02-08T10:55:21.435Z,32.40
2018-02-08T10:57:49.751Z,29.40
2018-02-08T11:00:17.271Z,28.37
2018-02-08T11:02:44.845Z,30.50
2018-02-08T11:05:12.364Z,29.83
2018-02-08T11:07:39.883Z,29.30
2018-02-08T11:10:07.444Z,28.97
2018-02-08T11:12:34.991Z,29.67
2018-02-08T11:15:02.717Z,28.70
2018-02-08T11:17:30.259Z,29.67
2018-02-08T11:19:57.830Z,30.00
2018-02-08T11:22:25.351Z,31.80
2018-02-08T11:24:53.004Z,35.00
2018-02-08T11:27:21.287Z,33.90
2018-02-08T11:29:48.841Z,34.57
2018-02-08T11:32:16.376Z,36.37
2018-02-08T11:34:44.026Z,35.97
2018-02-08T11:37:11.542Z,38.90
2018-02-08T11:39:39.107Z,36.63
2018-02-08T11:42:06.636Z,36.70
2018-02-08T11:44:34.955Z,37.57
2018-02-08T11:47:02.468Z,36.40
2018-02-08T11:49:30.013Z,37.37
2018-02-08T11:51:57.560Z,34.50
2018-02-08T11:54:25.184Z,39.10
2018-02-08T11:56:52.712Z,39.00
2018-02-08T11:59:20.264Z,36.30
2018-02-08T12:01:48.557Z,38.23
2018-02-08T12:04:16.916Z,35.80
2018-02-08T12:06:44.440Z,38.70
2018-02-08T12:09:12.000Z,37.40
2018-02-08T12:11:40.290Z,37.53
2018-02-08T12:14:08.602Z,39.00
2018-02-08T12:16:36.134Z,37.00
2018-02-08T12:19:04.461Z,37.00
2018-02-08T12:21:32.012Z,35.60
2018-02-08T12:23:59.567Z,37.83
2018-02-08T12:26:27.866Z,40.30
2018-02-08T12:28:56.183Z,35.53
2018-02-08T12:31:23.723Z,37.00
2018-02-08T12:33:52.136Z,34.93
2018-02-08T12:36:19.619Z,35.37
2018-02-08T12:38:47.204Z,37.40
2018-02-08T12:41:14.730Z,37.97
2018-02-08T12:43:43.270Z,38.07
2018-02-08T12:46:10.803Z,37.07
2018-02-08T12:48:38.364Z,36.20
2018-02-08T12:51:05.887Z,39.87
2018-02-08T12:53:33.455Z,39.60
2018-02-08T12:56:00.978Z,37.23
2018-02-08T12:58:28.535Z,40.30
2018-02-08T13:00:56.080Z,39.90
2018-02-08T13:03:23.628Z,40.03
2018-02-08T13:05:51.252Z,41.07
2018-02-08T13:08:18.799Z,38.27
2018-02-08T13:10:46.320Z,37.70
2018-02-08T13:13:13.936Z,37.53
2018-02-08T13:15:41.452Z,35.97
2018-02-08T13:18:09.006Z,38.80
2018-02-08T13:20:36.530Z,39.73
2018-02-08T13:23:04.083Z,37.87
2018-02-08T13:25:32.459Z,38.47
2018-02-08T13:28:00.024Z,38.63
2018-02-08T13:30:27.567Z,37.77
2018-02-08T13:32:55.120Z,38.03
2018-02-08T13:35:22.641Z,38.70
2018-02-08T13:37:50.219Z,37.20
2018-02-08T13:43:26.561Z,36.87
2018-02-08T13:45:54.075Z,35.93
2018-02-08T13:48:22.577Z,37.13
2018-02-08T13:54:07.253Z,36.57
2018-02-08T13:56:40.559Z,37.50
2018-02-08T13:59:13.815Z,36.20
2018-02-08T14:01:44.750Z,37.33
2018-02-08T14:04:12.280Z,37.10
2018-02-08T14:06:39.823Z,36.23
2018-02-08T14:09:07.353Z,37.00
2018-02-08T14:11:35.671Z,34.60
2018-02-08T14:14:03.219Z,34.90
2018-02-08T14:16:31.580Z,34.90
2018-02-08T14:18:59.167Z,33.80
2018-02-08T14:21:26.690Z,36.87
2018-02-08T14:23:54.299Z,39.60
2018-02-08T14:26:21.913Z,34.47
2018-02-08T14:28:50.206Z,34.10
2018-02-08T14:31:17.778Z,38.37
2018-02-08T14:33:45.326Z,34.70
2018-02-08T14:36:13.621Z,33.53
2018-02-08T14:38:41.267Z,32.77
2018-02-08T14:41:08.948Z,42.70
2018-02-08T14:43:36.494Z,30.70
2018-02-08T14:46:04.016Z,31.77
2018-02-08T14:48:32.379Z,35.77
2018-02-08T14:50:59.919Z,32.50
2018-02-08T14:53:27.448Z,34.83
2018-02-08T14:55:55.147Z,33.63
2018-02-08T14:58:22.663Z,33.27
2018-02-08T15:00:50.263Z,32.83
2018-02-08T15:03:17.816Z,33.23
2018-02-08T15:05:45.332Z,34.43
2018-02-08T15:08:12.884Z,36.17
2018-02-08T15:10:40.419Z,35.13
2018-02-08T15:13:08.016Z,33.83
2018-02-08T15:15:35.566Z,33.53
2018-02-08T15:18:03.110Z,34.97
2018-02-08T15:20:30.627Z,34.20
2018-02-08T15:22:58.204Z,34.37
2018-02-08T15:25:25.735Z,34.93
2018-02-08T15:27:53.318Z,34.10
2018-02-08T15:30:20.899Z,33.40
2018-02-08T15:32:48.457Z,32.00
2018-02-08T15:35:15.979Z,32.70
2018-02-08T15:37:43.609Z,35.37
2018-02-08T15:40:11.160Z,35.80
2018-02-08T15:42:38.775Z,34.50
2018-02-08T15:45:06.294Z,35.10
2018-02-08T15:47:33.839Z,36.20
2018-02-08T15:50:01.364Z,36.50
2018-02-08T15:52:28.927Z,35.23
2018-02-08T15:54:56.490Z,36.80
2018-02-08T15:57:24.039Z,36.47
2018-02-08T15:59:51.591Z,36.60
2018-02-08T16:02:19.158Z,35.60
2018-02-08T16:04:46.692Z,38.70
2018-02-08T16:07:14.244Z,37.20
2018-02-08T16:09:41.858Z,37.10
2018-02-08T16:12:09.440Z,37.57
2018-02-08T16:14:36.976Z,37.93
2018-02-08T16:17:04.542Z,36.80
2018-02-08T16:19:32.068Z,37.37
2018-02-08T16:21:59.608Z,38.43
2018-02-08T16:24:27.395Z,37.03
2018-02-08T16:26:54.947Z,39.00
2018-02-08T16:29:22.507Z,40.80
2018-02-08T16:31:50.063Z,43.53
2018-02-08T16:34:18.395Z,41.13
2018-02-08T16:36:45.918Z,43.03
2018-02-08T16:39:14.240Z,41.03
2018-02-08T16:41:41.762Z,41.17
2018-02-08T16:44:09.323Z,43.73
2018-02-08T16:46:36.883Z,44.30
2018-02-08T16:49:04.437Z,39.90
2018-02-08T16:51:31.959Z,44.87
2018-02-08T16:53:59.514Z,47.30
2018-02-08T16:56:27.026Z,47.27
2018-02-08T16:58:54.575Z,44.80
2018-02-08T17:01:22.099Z,48.43
2018-02-08T17:03:49.679Z,43.50
2018-02-08T17:06:17.207Z,46.20
2018-02-08T17:08:45.539Z,48.97
2018-02-08T17:11:13.059Z,44.30
2018-02-08T17:13:41.373Z,46.57
2018-02-08T17:16:08.899Z,46.20
2018-02-08T17:18:36.526Z,51.43
2018-02-08T17:21:04.099Z,52.53
2018-02-08T17:23:31.896Z,51.50
2018-02-08T17:25:59.431Z,50.80
2018-02-08T17:28:26.991Z,51.27
2018-02-08T17:30:54.543Z,58.57
2018-02-08T17:33:22.067Z,74.63
2018-02-08T17:35:49.636Z,65.47
2018-02-08T17:38:17.167Z,61.43
2018-02-08T17:40:44.727Z,58.67
2018-02-08T17:43:12.260Z,62.87
2018-02-08T17:45:39.840Z,59.33
2018-02-08T17:48:07.371Z,60.17
2018-02-08T17:50:35.691Z,60.00
2018-02-08T17:53:03.211Z,57.90
2018-02-08T17:55:30.767Z,61.70
2018-02-08T17:57:58.302Z,61.00
2018-02-08T18:00:25.866Z,59.27
2018-02-08T18:02:53.383Z,54.40
2018-02-08T18:05:22.072Z,59.00
2018-02-08T18:07:49.640Z,58.23
2018-02-08T18:10:17.198Z,54.60
2018-02-08T18:12:44.751Z,57.70
2018-02-08T18:15:12.708Z,59.07
2018-02-08T18:17:40.240Z,57.33
2018-02-08T18:20:07.812Z,55.13
2018-02-08T18:22:35.350Z,56.10
2018-02-08T18:25:02.932Z,65.23
2018-02-08T18:27:30.469Z,61.40
2018-02-08T18:29:58.024Z,56.87
2018-02-08T18:32:25.570Z,58.03
2018-02-08T18:34:53.123Z,60.20
2018-02-08T18:37:20.697Z,59.90
2018-02-08T18:39:49.019Z,60.47
2018-02-08T18:42:16.558Z,59.70
2018-02-08T18:44:44.120Z,63.20
2018-02-08T18:47:11.842Z,63.00
2018-02-08T18:49:39.426Z,69.87
2018-02-08T18:52:06.980Z,66.43
2018-02-08T18:54:34.554Z,65.53
2018-02-08T18:57:02.092Z,64.57
2018-02-08T18:59:29.664Z,62.87
2018-02-08T19:01:57.211Z,60.20
2018-02-08T19:04:24.775Z,67.80
2018-02-08T19:06:52.334Z,73.27
2018-02-08T19:09:19.920Z,68.97
2018-02-08T19:11:47.463Z,62.47
2018-02-08T19:14:15.363Z,67.17
2018-02-08T19:16:42.959Z,66.70
2018-02-08T19:19:10.539Z,67.13
2018-02-08T19:21:38.099Z,71.60
2018-02-08T19:24:05.662Z,70.87
2018-02-08T19:26:33.212Z,71.23
2018-02-08T19:29:00.791Z,74.93
2018-02-08T19:31:28.335Z,70.17
2018-02-08T19:33:55.965Z,69.90
2018-02-08T19:36:24.255Z,72.97
2018-02-08T19:38:51.845Z,63.40
2018-02-08T19:41:19.374Z,73.83
2018-02-08T19:43:46.934Z,78.27
2018-02-08T19:46:14.520Z,66.70
2018-02-08T19:48:42.258Z,63.50
2018-02-08T19:51:09.815Z,62.87
2018-02-08T19:53:37.374Z,62.87
2018-02-08T19:56:04.950Z,65.00
2018-02-08T19:58:32.548Z,60.67
2018-02-08T20:01:00.851Z,60.30
2018-02-08T20:03:28.479Z,62.93
2018-02-08T20:05:56.787Z,59.83
2018-02-08T20:08:24.373Z,59.90
2018-02-08T20:10:51.923Z,60.00
2018-02-08T20:13:20.252Z,56.80
2018-02-08T20:15:47.792Z,53.50
2018-02-08T20:18:15.351Z,59.13
2018-02-08T20:20:42.894Z,57.57
2018-02-08T20:23:10.616Z,57.00
2018-02-08T20:25:47.538Z,59.53
2018-02-08T20:28:15.167Z,53.40
2018-02-08T20:33:51.408Z,54.17
2018-02-08T20:36:18.923Z,55.73
2018-02-08T20:38:46.471Z,51.57
2018-02-08T20:41:14.023Z,51.90
2018-02-08T20:43:41.611Z,50.20
2018-02-08T20:46:09.131Z,54.30
2018-02-08T20:48:36.693Z,50.97
2018-02-08T20:51:04.255Z,53.03
2018-02-08T20:53:31.832Z,53.30
2018-02-08T20:55:59.352Z,51.90
2018-02-08T20:58:26.919Z,61.00
2018-02-08T21:00:54.453Z,64.70
2018-02-08T21:03:22.037Z,57.63
2018-02-08T21:05:49.726Z,52.90
2018-02-08T21:08:17.300Z,53.00
2018-02-08T21:10:45.624Z,50.90
2018-02-08T21:13:13.240Z,51.97
2018-02-08T21:15:40.791Z,48.40
2018-02-08T21:18:08.419Z,49.27
2018-02-08T21:20:35.971Z,50.57
2018-02-08T21:23:03.532Z,48.53
2018-02-08T21:25:31.063Z,49.20
2018-02-08T21:27:59.762Z,49.90
2018-02-08T21:30:27.328Z,50.87
2018-02-08T21:32:54.929Z,51.10
2018-02-08T21:35:22.447Z,51.80
2018-02-08T21:37:51.362Z,49.53
2018-02-08T21:40:18.891Z,50.10
2018-02-08T21:42:46.503Z,51.30
2018-02-08T21:45:14.026Z,49.23
2018-02-08T21:47:41.639Z,48.37
2018-02-08T21:50:09.920Z,46.63
2018-02-08T21:52:37.519Z,51.30
2018-02-08T21:55:05.052Z,52.40
2018-02-08T21:57:32.629Z,52.40
2018-02-08T22:00:00.927Z,49.17
2018-02-08T22:02:28.531Z,51.63
2018-02-08T22:04:56.173Z,49.60
2018-02-08T22:07:23.698Z,49.50
2018-02-08T22:09:51.227Z,52.50
2018-02-08T22:12:18.864Z,52.00
2018-02-08T22:14:46.402Z,49.80
2018-02-08T22:17:14.008Z,53.03
2018-02-08T22:19:41.544Z,50.53
2018-02-08T22:22:09.123Z,49.40
2018-02-08T22:24:36.680Z,49.47
2018-02-08T22:27:04.201Z,53.20
2018-02-08T22:29:31.806Z,48.30
2018-02-08T22:32:01.191Z,50.10
2018-02-08T22:34:29.019Z,52.13
2018-02-08T22:36:56.582Z,56.60
2018-02-08T22:39:24.753Z,50.80
2018-02-08T22:41:53.080Z,52.40
2018-02-08T22:44:20.640Z,51.40
2018-02-08T22:46:48.249Z,52.43
2018-02-08T22:49:15.803Z,54.10
2018-02-08T22:51:43.315Z,51.07
2018-02-08T22:54:10.868Z,54.77
2018-02-08T22:56:38.399Z,54.40
2018-02-08T22:59:06.712Z,54.90
2018-02-08T23:01:34.380Z,52.40
2018-02-08T23:04:01.931Z,55.73
2018-02-08T23:06:30.215Z,55.87
2018-02-08T23:08:58.564Z,55.10
2018-02-08T23:11:26.083Z,56.70
2018-02-08T23:13:54.400Z,56.03
2018-02-08T23:16:21.926Z,54.73
2018-02-08T23:18:49.472Z,55.17
2018-02-08T23:21:16.995Z,56.50
2018-02-08T23:23:44.559Z,55.30
2018-02-08T23:26:12.079Z,53.27
2018-02-08T23:28:39.629Z,55.87
2018-02-08T23:31:07.151Z,54.97
2018-02-08T23:33:34.708Z,53.03
2018-02-08T23:36:02.226Z,53.03
2018-02-08T23:38:29.792Z,55.40
2018-02-08T23:40:57.317Z,54.67
2018-02-08T23:43:25.132Z,57.50
2018-02-08T23:45:52.670Z,55.73
2018-02-08T23:48:20.232Z,53.50
2018-02-08T23:50:47.752Z,55.57
2018-02-08T23:53:15.282Z,53.37
2018-02-08T23:55:42.831Z,55.97
2018-02-08T23:58:10.355Z,55.00
